createdAt,value
2023-01-12T00:01:16.137Z,98906.00
2023-01-12T00:02:49.642Z,98894.00
2023-01-12T00:04:21.933Z,98898.00
2023-01-12T00:06:00.838Z,98892.00
2023-01-12T00:07:34.019Z,98888.00
2023-01-12T00:09:09.069Z,98875.00
2023-01-12T00:10:42.298Z,98868.00
2023-01-12T00:12:15.543Z,98857.00
2023-01-12T00:13:49.147Z,98884.00
2023-01-12T00:15:55.190Z,98876.00
2023-01-12T00:17:28.656Z,98877.00
2023-01-12T00:19:01.434Z,98884.00
2023-01-12T00:20:34.527Z,98874.00
2023-01-12T00:22:12.457Z,98886.00
2023-01-12T00:23:44.908Z,98884.00
2023-01-12T00:25:18.020Z,98883.00
2023-01-12T00:26:50.413Z,98887.00
2023-01-12T00:28:23.526Z,98895.00
2023-01-12T00:29:58.138Z,98882.00
2023-01-12T00:31:30.698Z,98882.00
2023-01-12T00:33:04.898Z,98895.00
2023-01-12T00:34:38.094Z,98893.00
2023-01-12T00:36:13.763Z,98886.00
2023-01-12T00:37:47.084Z,98888.00
2023-01-12T00:39:21.247Z,98889.00
2023-01-12T00:40:54.493Z,98885.00
2023-01-12T00:42:45.399Z,98884.00
2023-01-12T00:44:36.389Z,98892.00
2023-01-12T00:46:11.131Z,98891.00
2023-01-12T00:47:44.699Z,98879.00
2023-01-12T00:49:17.424Z,98892.00
2023-01-12T00:50:50.544Z,98890.00
2023-01-12T00:52:32.036Z,98893.00
2023-01-12T00:54:04.953Z,98883.00
2023-01-12T00:55:38.075Z,98891.00
2023-01-12T00:57:13.991Z,98888.00
2023-01-12T00:58:47.006Z,98886.00
2023-01-12T01:00:20.802Z,98886.00
2023-01-12T01:01:54.481Z,98875.00
2023-01-12T01:03:27.676Z,98887.00
2023-01-12T01:05:01.323Z,98877.00
2023-01-12T01:06:33.737Z,98871.00
2023-01-12T01:08:07.575Z,98877.00
2023-01-12T01:09:39.864Z,98869.00
2023-01-12T01:11:15.276Z,98866.00
2023-01-12T01:12:48.484Z,98866.00
2023-01-12T01:14:22.057Z,98862.00
2023-01-12T01:15:54.383Z,98856.00
2023-01-12T01:17:29.926Z,98862.00
2023-01-12T01:19:05.803Z,98868.00
2023-01-12T01:20:38.872Z,98862.00
2023-01-12T01:22:12.447Z,98867.00
2023-01-12T01:23:45.285Z,98860.00
2023-01-12T01:25:18.711Z,98869.00
2023-01-12T01:26:52.398Z,98867.00
2023-01-12T01:28:25.565Z,98868.00
2023-01-12T01:29:58.687Z,98874.00
2023-01-12T01:31:31.893Z,98863.00
2023-01-12T01:33:06.379Z,98850.00
2023-01-12T01:34:39.502Z,98864.00
2023-01-12T01:36:12.628Z,98842.00
2023-01-12T01:37:45.926Z,98852.00
2023-01-12T01:39:18.433Z,98853.00
2023-01-12T01:40:51.880Z,98864.00
2023-01-12T01:42:29.393Z,98849.00
2023-01-12T01:44:06.107Z,98854.00
2023-01-12T01:45:39.438Z,98856.00
2023-01-12T01:47:29.772Z,98858.00
2023-01-12T01:49:25.272Z,98846.00
2023-01-12T01:51:03.548Z,98853.00
2023-01-12T01:52:42.971Z,98853.00
2023-01-12T01:54:16.934Z,98849.00
2023-01-12T01:55:53.528Z,98856.00
2023-01-12T01:57:32.918Z,98854.00
2023-01-12T01:59:12.349Z,98850.00
2023-01-12T02:00:47.065Z,98846.00
2023-01-12T02:02:19.823Z,98844.00
2023-01-12T02:03:55.689Z,98852.00
2023-01-12T02:05:30.655Z,98843.00
2023-01-12T02:07:06.150Z,98840.00
2023-01-12T02:08:47.676Z,98842.00
2023-01-12T02:10:22.318Z,98852.00
2023-01-12T02:12:14.294Z,98832.00
2023-01-12T02:14:05.391Z,98832.00
2023-01-12T02:16:09.973Z,98826.00
2023-01-12T02:18:01.546Z,98826.00
2023-01-12T02:20:09.458Z,98827.00
2023-01-12T02:22:19.192Z,98824.00
2023-01-12T02:24:52.668Z,98809.00
2023-01-12T02:27:40.412Z,98807.00
2023-01-12T02:29:51.421Z,98803.00
2023-01-12T02:31:46.016Z,98807.00
2023-01-12T02:33:38.225Z,98805.00
2023-01-12T02:35:19.658Z,98800.00
2023-01-12T02:37:04.167Z,98799.00
2023-01-12T02:38:47.551Z,98793.00
2023-01-12T02:40:32.877Z,98795.00
2023-01-12T02:42:33.467Z,98795.00
2023-01-12T02:44:10.530Z,98783.00
2023-01-12T02:45:54.842Z,98781.00
2023-01-12T02:47:45.078Z,98773.00
2023-01-12T02:49:24.137Z,98778.00
2023-01-12T02:51:07.553Z,98784.00
2023-01-12T02:52:47.776Z,98778.00
2023-01-12T02:54:24.379Z,98768.00
2023-01-12T02:55:59.985Z,98771.00
2023-01-12T02:57:36.115Z,98773.00
2023-01-12T02:59:16.984Z,98770.00
2023-01-12T03:00:56.251Z,98767.00
2023-01-12T03:02:31.698Z,98761.00
2023-01-12T03:04:10.064Z,98758.00
2023-01-12T03:05:44.726Z,98754.00
2023-01-12T03:07:46.911Z,98752.00
2023-01-12T03:09:20.620Z,98754.00
2023-01-12T03:11:15.167Z,98762.00
2023-01-12T03:12:51.431Z,98750.00
2023-01-12T03:14:25.100Z,98741.00
2023-01-12T03:16:00.839Z,98761.00
2023-01-12T03:17:41.769Z,98752.00
2023-01-12T03:19:20.220Z,98755.00
2023-01-12T03:20:59.506Z,98756.00
2023-01-12T03:22:37.521Z,98751.00
2023-01-12T03:24:14.018Z,98755.00
2023-01-12T03:25:49.870Z,98742.00
2023-01-12T03:27:30.803Z,98730.00
2023-01-12T03:29:11.256Z,98744.00
2023-01-12T03:30:53.425Z,98743.00
2023-01-12T03:32:27.886Z,98756.00
2023-01-12T03:34:02.952Z,98749.00
2023-01-12T03:35:41.986Z,98750.00
2023-01-12T03:37:26.817Z,98736.00
2023-01-12T03:39:14.329Z,98731.00
2023-01-12T03:40:57.170Z,98728.00
2023-01-12T03:42:39.075Z,98734.00
2023-01-12T03:44:21.568Z,98733.00
2023-01-12T03:46:02.435Z,98729.00
2023-01-12T03:47:37.881Z,98725.00
2023-01-12T03:49:22.604Z,98725.00
2023-01-12T03:51:01.990Z,98729.00
2023-01-12T03:52:38.528Z,98720.00
2023-01-12T03:54:14.684Z,98709.00
2023-01-12T03:55:50.304Z,98718.00
2023-01-12T03:57:24.337Z,98707.00
2023-01-12T03:58:58.754Z,98704.00
2023-01-12T04:00:32.160Z,98710.00
2023-01-12T04:02:05.946Z,98710.00
2023-01-12T04:03:39.515Z,98707.00
2023-01-12T04:05:16.837Z,98687.00
2023-01-12T04:06:50.146Z,98694.00
2023-01-12T04:08:24.272Z,98696.00
2023-01-12T04:09:58.196Z,98693.00
2023-01-12T04:11:45.478Z,98702.00
2023-01-12T04:13:18.981Z,98699.00
2023-01-12T04:14:51.415Z,98692.00
2023-01-12T04:16:24.956Z,98677.00
2023-01-12T04:17:58.278Z,98684.00
2023-01-12T04:19:33.396Z,98686.00
2023-01-12T04:21:28.174Z,98672.00
2023-01-12T04:23:00.503Z,98671.00
2023-01-12T04:24:34.452Z,98672.00
2023-01-12T04:26:08.000Z,98661.00
2023-01-12T04:27:48.604Z,98674.00
2023-01-12T04:29:20.786Z,98667.00
2023-01-12T04:30:55.098Z,98654.00
2023-01-12T04:32:27.282Z,98656.00
2023-01-12T04:34:00.522Z,98660.00
2023-01-12T04:35:33.659Z,98646.00
2023-01-12T04:37:08.485Z,98649.00
2023-01-12T04:38:47.095Z,98656.00
2023-01-12T04:40:21.705Z,98636.00
2023-01-12T04:41:54.945Z,98651.00
2023-01-12T04:43:29.208Z,98628.00
2023-01-12T04:45:02.631Z,98644.00
2023-01-12T04:46:36.033Z,98642.00
2023-01-12T04:48:12.223Z,98640.00
2023-01-12T04:49:45.548Z,98636.00
2023-01-12T04:51:19.231Z,98636.00
2023-01-12T04:52:53.879Z,98639.00
2023-01-12T04:54:27.076Z,98634.00
2023-01-12T04:56:04.223Z,98633.00
2023-01-12T04:57:37.531Z,98634.00
2023-01-12T04:59:10.838Z,98635.00
2023-01-12T05:00:44.271Z,98621.00
2023-01-12T05:02:17.684Z,98625.00
2023-01-12T05:03:50.946Z,98630.00
2023-01-12T05:05:24.138Z,98623.00
2023-01-12T05:06:57.437Z,98618.00
2023-01-12T05:08:49.570Z,98603.00
2023-01-12T05:10:24.396Z,98614.00
2023-01-12T05:11:57.566Z,98616.00
2023-01-12T05:13:32.847Z,98610.00
2023-01-12T05:15:07.858Z,98602.00
2023-01-12T05:16:41.161Z,98597.00
2023-01-12T05:18:13.811Z,98605.00
2023-01-12T05:19:48.362Z,98601.00
2023-01-12T05:21:22.174Z,98581.00
2023-01-12T05:22:55.452Z,98575.00
2023-01-12T05:24:30.206Z,98586.00
2023-01-12T05:26:05.819Z,98582.00
2023-01-12T05:27:39.057Z,98572.00
2023-01-12T05:29:13.204Z,98576.00
2023-01-12T05:30:46.494Z,98569.00
2023-01-12T05:32:19.905Z,98571.00
2023-01-12T05:33:53.132Z,98569.00
2023-01-12T05:35:26.323Z,98565.00
2023-01-12T05:36:59.706Z,98576.00
2023-01-12T05:38:32.985Z,98577.00
2023-01-12T05:40:09.476Z,98566.00
2023-01-12T05:42:03.866Z,98578.00
2023-01-12T05:43:51.916Z,98557.00
2023-01-12T05:45:24.321Z,98556.00
2023-01-12T05:46:57.562Z,98546.00
2023-01-12T05:48:31.917Z,98554.00
2023-01-12T05:50:06.793Z,98545.00
2023-01-12T05:51:39.854Z,98540.00
2023-01-12T05:53:12.089Z,98542.00
2023-01-12T05:54:45.243Z,98527.00
2023-01-12T05:56:25.563Z,98531.00
2023-01-12T05:58:00.836Z,98521.00
2023-01-12T05:59:34.107Z,98526.00
2023-01-12T06:01:08.978Z,98540.00
2023-01-12T06:02:42.289Z,98534.00
2023-01-12T06:04:15.729Z,98540.00
2023-01-12T06:05:55.706Z,98536.00
2023-01-12T06:07:29.049Z,98528.00
2023-01-12T06:09:03.937Z,98524.00
2023-01-12T06:10:39.204Z,98531.00
2023-01-12T06:12:31.426Z,98534.00
2023-01-12T06:14:04.390Z,98541.00
2023-01-12T06:15:37.850Z,98530.00
2023-01-12T06:17:11.024Z,98529.00
2023-01-12T06:18:44.255Z,98542.00
2023-01-12T06:20:17.944Z,98521.00
2023-01-12T06:21:51.522Z,98521.00
2023-01-12T06:23:34.983Z,98518.00
2023-01-12T06:25:10.212Z,98528.00
2023-01-12T06:26:45.126Z,98516.00
2023-01-12T06:28:19.693Z,98521.00
2023-01-12T06:29:52.928Z,98535.00
2023-01-12T06:31:26.168Z,98516.00
2023-01-12T06:33:04.531Z,98503.00
2023-01-12T06:34:37.847Z,98520.00
2023-01-12T06:36:12.437Z,98509.00
2023-01-12T06:37:45.750Z,98512.00
2023-01-12T06:39:19.129Z,98512.00
2023-01-12T06:40:53.088Z,98504.00
2023-01-12T06:42:28.838Z,98504.00
2023-01-12T06:44:03.662Z,98489.00
2023-01-12T06:45:36.995Z,98500.00
2023-01-12T06:47:10.324Z,98504.00
2023-01-12T06:48:43.525Z,98502.00
2023-01-12T06:50:17.828Z,98491.00
2023-01-12T06:51:51.420Z,98497.00
2023-01-12T06:53:24.804Z,98480.00
2023-01-12T06:54:59.211Z,98497.00
2023-01-12T06:56:31.519Z,98487.00
2023-01-12T06:58:05.361Z,98495.00
2023-01-12T06:59:41.936Z,98490.00
2023-01-12T07:01:15.506Z,98475.00
2023-01-12T07:02:51.622Z,98476.00
2023-01-12T07:04:25.790Z,98486.00
2023-01-12T07:06:00.244Z,98491.00
2023-01-12T07:07:33.609Z,98477.00
2023-01-12T07:09:07.068Z,98482.00
2023-01-12T07:10:40.860Z,98474.00
2023-01-12T07:12:14.066Z,98478.00
2023-01-12T07:13:47.272Z,98478.00
2023-01-12T07:15:25.042Z,98477.00
2023-01-12T07:16:58.658Z,98466.00
2023-01-12T07:18:32.535Z,98456.00
2023-01-12T07:20:07.425Z,98458.00
2023-01-12T07:21:40.535Z,98464.00
2023-01-12T07:23:13.859Z,98468.00
2023-01-12T07:24:47.239Z,98464.00
2023-01-12T07:26:20.750Z,98460.00
2023-01-12T07:27:56.245Z,98460.00
2023-01-12T07:29:28.562Z,98455.00
2023-01-12T07:31:05.873Z,98460.00
2023-01-12T07:32:39.157Z,98459.00
2023-01-12T07:34:13.182Z,98473.00
2023-01-12T07:35:46.366Z,98467.00
2023-01-12T07:37:19.535Z,98469.00
2023-01-12T07:38:52.718Z,98475.00
2023-01-12T07:40:26.191Z,98473.00
2023-01-12T07:42:17.166Z,98469.00
2023-01-12T07:43:50.338Z,98473.00
2023-01-12T07:45:23.577Z,98475.00
2023-01-12T07:46:59.470Z,98480.00
2023-01-12T07:48:33.205Z,98477.00
2023-01-12T07:50:07.761Z,98478.00
2023-01-12T07:51:41.032Z,98473.00
2023-01-12T07:53:14.255Z,98459.00
2023-01-12T07:54:47.451Z,98456.00
2023-01-12T07:56:20.790Z,98463.00
2023-01-12T07:57:57.870Z,98468.00
2023-01-12T07:59:31.287Z,98466.00
2023-01-12T08:01:03.830Z,98466.00
2023-01-12T08:02:38.697Z,98473.00
2023-01-12T08:04:12.083Z,98465.00
2023-01-12T08:05:45.681Z,98467.00
2023-01-12T08:07:19.719Z,98477.00
2023-01-12T08:08:54.574Z,98470.00
2023-01-12T08:10:28.495Z,98476.00
2023-01-12T08:12:02.813Z,98473.00
2023-01-12T08:13:38.256Z,98480.00
2023-01-12T08:15:13.327Z,98474.00
2023-01-12T08:16:49.732Z,98483.00
2023-01-12T08:18:29.229Z,98477.00
2023-01-12T08:20:12.594Z,98478.00
2023-01-12T08:21:52.638Z,98470.00
2023-01-12T08:23:33.786Z,98474.00
2023-01-12T08:25:13.848Z,98479.00
2023-01-12T08:26:51.740Z,98475.00
2023-01-12T08:28:35.086Z,98481.00
2023-01-12T08:30:10.805Z,98484.00
2023-01-12T08:31:44.629Z,98476.00
2023-01-12T08:33:18.894Z,98472.00
2023-01-12T08:34:58.713Z,98481.00
2023-01-12T08:36:35.558Z,98475.00
2023-01-12T08:38:08.956Z,98483.00
2023-01-12T08:39:42.349Z,98468.00
2023-01-12T08:41:33.880Z,98477.00
2023-01-12T08:43:07.183Z,98479.00
2023-01-12T08:44:39.535Z,98480.00
2023-01-12T08:46:12.782Z,98472.00
2023-01-12T08:47:46.125Z,98473.00
2023-01-12T08:49:24.402Z,98472.00
2023-01-12T08:51:02.026Z,98474.00
2023-01-12T08:52:36.332Z,98481.00
2023-01-12T08:54:11.631Z,98471.00
2023-01-12T08:55:44.834Z,98477.00
2023-01-12T08:57:19.165Z,98479.00
2023-01-12T08:58:52.824Z,98484.00
2023-01-12T09:00:26.145Z,98471.00
2023-01-12T09:01:59.921Z,98487.00
2023-01-12T09:03:33.275Z,98490.00
2023-01-12T09:05:07.866Z,98473.00
2023-01-12T09:06:45.398Z,98470.00
2023-01-12T09:08:18.782Z,98476.00
2023-01-12T09:09:52.126Z,98492.00
2023-01-12T09:11:27.274Z,98484.00
2023-01-12T09:13:00.468Z,98490.00
2023-01-12T09:14:38.647Z,98487.00
2023-01-12T09:16:15.637Z,98490.00
2023-01-12T09:17:53.974Z,98480.00
2023-01-12T09:19:27.200Z,98477.00
2023-01-12T09:21:07.312Z,98485.00
2023-01-12T09:22:41.860Z,98489.00
2023-01-12T09:24:16.537Z,98486.00
2023-01-12T09:25:49.849Z,98476.00
2023-01-12T09:27:23.067Z,98490.00
2023-01-12T09:28:56.962Z,98485.00
2023-01-12T09:30:30.163Z,98496.00
2023-01-12T09:32:03.422Z,98491.00
2023-01-12T09:33:38.274Z,98496.00
2023-01-12T09:35:11.653Z,98493.00
2023-01-12T09:36:45.499Z,98497.00
2023-01-12T09:38:20.002Z,98493.00
2023-01-12T09:39:53.278Z,98493.00
2023-01-12T09:41:47.588Z,98497.00
2023-01-12T09:43:39.096Z,98492.00
2023-01-12T09:45:39.643Z,98498.00
2023-01-12T09:47:22.423Z,98501.00
2023-01-12T09:48:56.215Z,98509.00
2023-01-12T09:50:35.653Z,98516.00
2023-01-12T09:52:18.123Z,98502.00
2023-01-12T09:53:52.793Z,98496.00
2023-01-12T09:55:30.441Z,98499.00
2023-01-12T09:57:28.784Z,98499.00
2023-01-12T09:59:31.590Z,98508.00
2023-01-12T10:01:24.116Z,98511.00
2023-01-12T10:03:15.038Z,98511.00
2023-01-12T10:04:51.434Z,98505.00
2023-01-12T10:06:25.750Z,98517.00
2023-01-12T10:07:59.062Z,98511.00
2023-01-12T10:09:34.639Z,98526.00
2023-01-12T10:11:23.813Z,98500.00
2023-01-12T10:13:05.653Z,98496.00
2023-01-12T10:15:00.836Z,98517.00
2023-01-12T10:16:47.781Z,98528.00
2023-01-12T10:18:31.789Z,98510.00
2023-01-12T10:20:18.510Z,98514.00
2023-01-12T10:21:54.344Z,98524.00
2023-01-12T10:23:29.096Z,98526.00
2023-01-12T10:25:14.290Z,98494.00
2023-01-12T10:26:51.076Z,98525.00
2023-01-12T10:28:29.896Z,98515.00
2023-01-12T10:30:09.214Z,98529.00
2023-01-12T10:31:45.540Z,98516.00
2023-01-12T10:33:21.849Z,98529.00
2023-01-12T10:34:55.397Z,98528.00
2023-01-12T10:36:30.295Z,98508.00
2023-01-12T10:38:22.946Z,98527.00
2023-01-12T10:39:56.370Z,98523.00
2023-01-12T10:41:33.100Z,98522.00
2023-01-12T10:43:23.669Z,98517.00
2023-01-12T10:45:14.569Z,98522.00
2023-01-12T10:47:11.703Z,98541.00
2023-01-12T10:48:47.476Z,98524.00
2023-01-12T10:50:26.334Z,98524.00
2023-01-12T10:52:03.307Z,98523.00
2023-01-12T10:53:44.967Z,98516.00
2023-01-12T10:55:23.414Z,98524.00
2023-01-12T10:57:05.619Z,98515.00
2023-01-12T10:58:38.973Z,98528.00
2023-01-12T11:00:25.217Z,98517.00
2023-01-12T11:02:16.754Z,98513.00
2023-01-12T11:03:50.485Z,98513.00
2023-01-12T11:05:38.214Z,98507.00
2023-01-12T11:07:15.001Z,98511.00
2023-01-12T11:08:48.149Z,98516.00
2023-01-12T11:10:28.841Z,98510.00
2023-01-12T11:12:05.879Z,98503.00
2023-01-12T11:13:39.838Z,98515.00
2023-01-12T11:15:19.927Z,98518.00
2023-01-12T11:16:53.617Z,98524.00
2023-01-12T11:18:40.506Z,98520.00
2023-01-12T11:20:24.470Z,98516.00
2023-01-12T11:22:07.423Z,98522.00
2023-01-12T11:23:48.352Z,98525.00
2023-01-12T11:25:26.102Z,98516.00
2023-01-12T11:27:09.674Z,98528.00
2023-01-12T11:28:48.876Z,98518.00
2023-01-12T11:30:30.950Z,98500.00
2023-01-12T11:32:13.735Z,98541.00
2023-01-12T11:33:52.677Z,98500.00
2023-01-12T11:35:37.143Z,98505.00
2023-01-12T11:37:14.753Z,98509.00
2023-01-12T11:38:51.764Z,98504.00
2023-01-12T11:40:32.676Z,98511.00
2023-01-12T11:42:35.772Z,98502.00
2023-01-12T11:44:19.075Z,98517.00
2023-01-12T11:46:01.437Z,98510.00
2023-01-12T11:47:41.879Z,98502.00
2023-01-12T11:49:19.026Z,98514.00
2023-01-12T11:50:55.625Z,98513.00
2023-01-12T11:52:30.576Z,98500.00
2023-01-12T11:54:04.226Z,98497.00
2023-01-12T11:56:00.980Z,98502.00
2023-01-12T11:57:53.808Z,98502.00
2023-01-12T11:59:37.380Z,98510.00
2023-01-12T12:01:22.922Z,98508.00
2023-01-12T12:03:19.167Z,98504.00
2023-01-12T12:05:05.685Z,98503.00
2023-01-12T12:06:56.377Z,98505.00
2023-01-12T12:08:47.368Z,98495.00
2023-01-12T12:10:27.646Z,98494.00
2023-01-12T12:12:05.914Z,98489.00
2023-01-12T12:13:54.881Z,98499.00
2023-01-12T12:15:40.084Z,98492.00
2023-01-12T12:17:21.078Z,98484.00
2023-01-12T12:19:17.556Z,98495.00
2023-01-12T12:21:08.723Z,98499.00
2023-01-12T12:23:00.034Z,98489.00
2023-01-12T12:25:07.765Z,98497.00
2023-01-12T12:26:48.092Z,98494.00
2023-01-12T12:29:02.953Z,98495.00
2023-01-12T12:31:04.413Z,98494.00
2023-01-12T12:32:49.788Z,98485.00
2023-01-12T12:35:11.875Z,98489.00
2023-01-12T12:36:54.636Z,98492.00
2023-01-12T12:38:47.691Z,98478.00
2023-01-12T12:40:56.206Z,98485.00
2023-01-12T12:43:14.807Z,98484.00
2023-01-12T12:45:17.986Z,98485.00
2023-01-12T12:47:03.624Z,98484.00
2023-01-12T12:48:49.820Z,98487.00
2023-01-12T12:50:30.851Z,98488.00
2023-01-12T12:52:05.821Z,98473.00
2023-01-12T12:53:43.516Z,98491.00
2023-01-12T12:55:17.677Z,98479.00
2023-01-12T12:56:51.584Z,98471.00
2023-01-12T12:58:41.206Z,98463.00
2023-01-12T13:00:36.617Z,98468.00
2023-01-12T13:02:40.985Z,98462.00
2023-01-12T13:04:15.238Z,98469.00
2023-01-12T13:05:52.943Z,98463.00
2023-01-12T13:07:28.073Z,98462.00
2023-01-12T13:09:05.489Z,98470.00
2023-01-12T13:10:38.862Z,98456.00
2023-01-12T13:12:32.924Z,98454.00
2023-01-12T13:14:19.708Z,98469.00
2023-01-12T13:16:41.265Z,98454.00
2023-01-12T13:18:43.705Z,98453.00
2023-01-12T13:21:05.462Z,98466.00
2023-01-12T13:22:46.790Z,98462.00
2023-01-12T13:24:41.315Z,98458.00
2023-01-12T13:26:42.539Z,98455.00
2023-01-12T13:28:20.937Z,98460.00
2023-01-12T13:30:25.006Z,98452.00
2023-01-12T13:32:20.782Z,98457.00
2023-01-12T13:34:46.164Z,98458.00
2023-01-12T13:36:32.099Z,98454.00
2023-01-12T13:38:16.929Z,98443.00
2023-01-12T13:40:01.068Z,98456.00
2023-01-12T13:42:08.834Z,98445.00
2023-01-12T13:43:50.820Z,98459.00
2023-01-12T13:45:24.380Z,98446.00
2023-01-12T13:47:08.893Z,98456.00
2023-01-12T13:48:49.049Z,98464.00
2023-01-12T13:50:27.321Z,98462.00
2023-01-12T13:52:08.709Z,98464.00
2023-01-12T13:53:42.558Z,98458.00
2023-01-12T13:55:23.100Z,98465.00
2023-01-12T13:57:00.086Z,98474.00
2023-01-12T13:58:42.505Z,98468.00
2023-01-12T14:00:23.641Z,98472.00
2023-01-12T14:01:57.867Z,98473.00
2023-01-12T14:04:01.246Z,98464.00
2023-01-12T14:06:01.554Z,98468.00
2023-01-12T14:07:52.741Z,98467.00
2023-01-12T14:09:41.914Z,98464.00
2023-01-12T14:11:57.258Z,98469.00
2023-01-12T14:13:56.722Z,98481.00
2023-01-12T14:15:54.387Z,98462.00
2023-01-12T14:17:49.312Z,98465.00
2023-01-12T14:19:29.759Z,98471.00
2023-01-12T14:21:04.719Z,98469.00
2023-01-12T14:22:37.943Z,98456.00
2023-01-12T14:24:21.555Z,98468.00
2023-01-12T14:26:13.202Z,98476.00
2023-01-12T14:27:54.715Z,98480.00
2023-01-12T14:29:28.467Z,98477.00
2023-01-12T14:31:03.005Z,98461.00
2023-01-12T14:32:36.291Z,98463.00
2023-01-12T14:34:28.283Z,98466.00
2023-01-12T14:36:12.201Z,98480.00
2023-01-12T14:37:51.637Z,98469.00
2023-01-12T14:39:28.674Z,98468.00
2023-01-12T14:41:06.273Z,98461.00
2023-01-12T14:42:57.259Z,98467.00
2023-01-12T14:44:48.366Z,98473.00
2023-01-12T14:46:33.427Z,98454.00
2023-01-12T14:48:25.716Z,98457.00
2023-01-12T14:50:14.679Z,98461.00
2023-01-12T14:51:55.829Z,98453.00
2023-01-12T14:53:41.827Z,98453.00
2023-01-12T14:55:17.678Z,98454.00
2023-01-12T14:56:56.452Z,98453.00
2023-01-12T14:58:29.896Z,98451.00
2023-01-12T15:00:06.918Z,98444.00
2023-01-12T15:01:41.648Z,98450.00
2023-01-12T15:03:28.810Z,98432.00
2023-01-12T15:05:25.258Z,98439.00
2023-01-12T15:07:07.039Z,98443.00
2023-01-12T15:08:59.058Z,98436.00
2023-01-12T15:10:37.903Z,98440.00
2023-01-12T15:12:44.787Z,98429.00
2023-01-12T15:14:25.914Z,98435.00
2023-01-12T15:16:17.120Z,98439.00
2023-01-12T15:18:10.116Z,98438.00
2023-01-12T15:20:01.179Z,98438.00
2023-01-12T15:21:53.111Z,98440.00
2023-01-12T15:23:50.815Z,98435.00
2023-01-12T15:25:38.244Z,98443.00
2023-01-12T15:27:13.995Z,98433.00
2023-01-12T15:28:49.475Z,98436.00
2023-01-12T15:30:22.967Z,98433.00
2023-01-12T15:31:56.498Z,98436.00
2023-01-12T15:33:30.096Z,98442.00
2023-01-12T15:35:14.539Z,98436.00
2023-01-12T15:36:47.876Z,98432.00
2023-01-12T15:38:21.536Z,98423.00
2023-01-12T15:39:59.730Z,98422.00
2023-01-12T15:41:47.427Z,98431.00
2023-01-12T15:43:30.760Z,98432.00
2023-01-12T15:45:04.206Z,98423.00
2023-01-12T15:46:37.833Z,98428.00
2023-01-12T15:48:11.553Z,98421.00
2023-01-12T15:49:55.804Z,98424.00
2023-01-12T15:51:29.171Z,98429.00
2023-01-12T15:53:03.361Z,98418.00
2023-01-12T15:54:36.918Z,98420.00
2023-01-12T15:56:16.123Z,98426.00
2023-01-12T15:57:50.796Z,98416.00
2023-01-12T15:59:24.014Z,98419.00
2023-01-12T16:00:57.276Z,98429.00
2023-01-12T16:02:38.040Z,98423.00
2023-01-12T16:04:41.567Z,98419.00
2023-01-12T16:06:21.156Z,98411.00
2023-01-12T16:07:55.306Z,98421.00
2023-01-12T16:09:30.133Z,98416.00
2023-01-12T16:11:13.481Z,98420.00
2023-01-12T16:12:49.841Z,98415.00
2023-01-12T16:14:23.061Z,98416.00
2023-01-12T16:15:56.558Z,98416.00
2023-01-12T16:17:29.815Z,98411.00
2023-01-12T16:19:05.958Z,98412.00
2023-01-12T16:20:39.301Z,98410.00
2023-01-12T16:22:21.074Z,98404.00
2023-01-12T16:23:57.485Z,98410.00
2023-01-12T16:25:30.834Z,98413.00
2023-01-12T16:27:04.183Z,98415.00
2023-01-12T16:28:39.219Z,98406.00
2023-01-12T16:30:16.106Z,98401.00
2023-01-12T16:31:49.760Z,98407.00
2023-01-12T16:33:23.599Z,98404.00
2023-01-12T16:34:56.889Z,98406.00
2023-01-12T16:36:30.211Z,98406.00
2023-01-12T16:38:03.966Z,98408.00
2023-01-12T16:39:37.294Z,98408.00
2023-01-12T16:41:13.660Z,98398.00
2023-01-12T16:42:46.990Z,98399.00
2023-01-12T16:44:21.787Z,98404.00
2023-01-12T16:45:55.124Z,98404.00
2023-01-12T16:47:28.521Z,98412.00
2023-01-12T16:49:04.059Z,98397.00
2023-01-12T16:50:41.307Z,98386.00
2023-01-12T16:52:18.891Z,98393.00
2023-01-12T16:53:55.065Z,98399.00
2023-01-12T16:55:28.457Z,98389.00
2023-01-12T16:57:01.703Z,98390.00
2023-01-12T16:58:34.923Z,98379.00
2023-01-12T17:00:12.757Z,98387.00
2023-01-12T17:01:51.666Z,98384.00
2023-01-12T17:03:36.095Z,98388.00
2023-01-12T17:05:10.926Z,98373.00
2023-01-12T17:06:44.484Z,98375.00
2023-01-12T17:08:17.700Z,98378.00
2023-01-12T17:09:51.420Z,98377.00
2023-01-12T17:11:25.846Z,98384.00
2023-01-12T17:12:59.308Z,98375.00
2023-01-12T17:14:34.702Z,98364.00
2023-01-12T17:16:11.332Z,98376.00
2023-01-12T17:17:44.781Z,98369.00
2023-01-12T17:19:19.088Z,98364.00
2023-01-12T17:21:01.686Z,98372.00
2023-01-12T17:22:35.833Z,98362.00
2023-01-12T17:24:11.857Z,98370.00
2023-01-12T17:25:45.185Z,98366.00
2023-01-12T17:27:20.018Z,98360.00
2023-01-12T17:28:56.835Z,98362.00
2023-01-12T17:30:30.854Z,98362.00
2023-01-12T17:32:07.228Z,98367.00
2023-01-12T17:33:51.991Z,98365.00
2023-01-12T17:35:25.727Z,98372.00
2023-01-12T17:37:04.095Z,98367.00
2023-01-12T17:38:39.650Z,98360.00
2023-01-12T17:40:13.654Z,98363.00
2023-01-12T17:42:04.150Z,98371.00
2023-01-12T17:43:38.883Z,98366.00
2023-01-12T17:45:12.948Z,98365.00
2023-01-12T17:46:47.844Z,98361.00
2023-01-12T17:48:22.257Z,98357.00
2023-01-12T17:49:55.967Z,98366.00
2023-01-12T17:51:30.869Z,98381.00
2023-01-12T17:53:10.130Z,98371.00
2023-01-12T17:54:43.828Z,98374.00
2023-01-12T17:56:17.975Z,98383.00
2023-01-12T17:57:51.320Z,98375.00
2023-01-12T17:59:24.804Z,98380.00
2023-01-12T18:00:58.194Z,98380.00
2023-01-12T18:02:32.052Z,98378.00
2023-01-12T18:04:06.852Z,98375.00
2023-01-12T18:05:42.438Z,98373.00
2023-01-12T18:07:15.935Z,98367.00
2023-01-12T18:08:51.676Z,98372.00
2023-01-12T18:10:25.408Z,98372.00
2023-01-12T18:12:00.180Z,98364.00
2023-01-12T18:13:33.666Z,98366.00
2023-01-12T18:15:09.106Z,98370.00
2023-01-12T18:16:42.830Z,98364.00
2023-01-12T18:18:17.138Z,98355.00
2023-01-12T18:20:07.910Z,98350.00
2023-01-12T18:21:43.929Z,98363.00
2023-01-12T18:23:17.196Z,98355.00
2023-01-12T18:24:50.454Z,98361.00
2023-01-12T18:26:27.027Z,98358.00
2023-01-12T18:28:00.851Z,98357.00
2023-01-12T18:29:34.661Z,98359.00
2023-01-12T18:31:11.406Z,98368.00
2023-01-12T18:32:45.297Z,98366.00
2023-01-12T18:34:19.150Z,98369.00
2023-01-12T18:35:53.694Z,98369.00
2023-01-12T18:37:27.020Z,98367.00
2023-01-12T18:39:00.738Z,98377.00
2023-01-12T18:40:34.219Z,98378.00
2023-01-12T18:42:25.649Z,98355.00
2023-01-12T18:44:02.714Z,98361.00
2023-01-12T18:45:38.324Z,98359.00
2023-01-12T18:47:33.192Z,98364.00
2023-01-12T18:49:06.473Z,98368.00
2023-01-12T18:50:57.464Z,98350.00
2023-01-12T18:52:49.668Z,98357.00
2023-01-12T18:54:24.122Z,98362.00
2023-01-12T18:56:04.103Z,98355.00
2023-01-12T18:57:38.205Z,98357.00
2023-01-12T18:59:12.235Z,98359.00
2023-01-12T19:00:46.924Z,98354.00
2023-01-12T19:02:21.367Z,98355.00
2023-01-12T19:03:54.741Z,98346.00
2023-01-12T19:05:35.884Z,98356.00
2023-01-12T19:07:12.095Z,98348.00
2023-01-12T19:09:05.025Z,98351.00
2023-01-12T19:10:38.204Z,98354.00
2023-01-12T19:12:11.889Z,98357.00
2023-01-12T19:14:03.022Z,98339.00
2023-01-12T19:15:52.408Z,98348.00
2023-01-12T19:17:29.643Z,98335.00
2023-01-12T19:19:13.422Z,98358.00
2023-01-12T19:20:46.584Z,98342.00
2023-01-12T19:22:37.704Z,98343.00
2023-01-12T19:24:30.198Z,98335.00
2023-01-12T19:26:35.873Z,98334.00
2023-01-12T19:28:31.383Z,98344.00